South Wheelock, Vermont
Current Conditions -  °F | °C
As of 7:55 PM on Friday 19 Dec 2014 (Local Time) from KCDA Reporting Station
Overcast Overcast  
Wind Chill: 13°   Ceiling: 1100
Heat Index: 20°   Visibility: 10mi
Dew Point: 15°   Wind: 6mph
Humidity: 80%   Direction: 310°NW
Pressure: 30.13"   Gusts: NA
Location:  44.5541°N, 72.0612°W
Report Text: KCDA 200055Z AUTO 31005KT 10SM OVC011 M06/M09 A3013 RMK AO2 T10651095
Loading
Personal Weather Stations






























Interactive Weather Map New forecast layout! Learn more

10-Day Weather Forecast

Advertisements
Track Severe Weather on mobile